Time;durP1;ratioP1;P1;durP2;ratioP2;P2;SDS_P1;SDS_P2;PMS_P1;PMS_P2;Temp;Humidity;BMP_temperature;BMP_pressure;BME280_temperature;BME280_humidity;BME280_pressure;Samples;Min_cycle;Max_cycle;Signal;HPM_P1;HPM_P2
2022/10/04 00:00:11;;;;;;;16.20;4.88;;;16.60;99.90;;;;;;5059377;28;20115;-63
2022/10/04 00:02:43;;;;;;;22.38;5.55;;;16.60;99.90;;;;;;5061944;28;20052;-64
2022/10/04 00:05:14;;;;;;;11.27;4.85;;;16.60;99.90;;;;;;5069247;28;20102;-63
2022/10/04 00:07:49;;;;;;;15.73;5.30;;;16.80;99.90;;;;;;5052375;28;20036;-62
2022/10/04 00:10:22;;;;;;;25.25;6.43;;;16.70;99.90;;;;;;5051702;28;20076;-62
2022/10/04 00:12:55;;;;;;;22.67;6.55;;;16.60;99.90;;;;;;5071445;28;20567;-62
2022/10/04 00:15:24;;;;;;;13.80;5.10;;;16.60;99.90;;;;;;5074292;28;20082;-63
2022/10/04 00:18:27;;;;;;;21.35;5.13;;;16.70;99.90;;;;;;5072639;28;20068;-63
2022/10/04 00:20:53;;;;;;;15.93;5.35;;;16.80;99.90;;;;;;5063216;28;20120;-63
2022/10/04 00:23:24;;;;;;;17.23;5.45;;;16.70;99.90;;;;;;5073809;28;20075;-62
2022/10/04 00:26:19;;;;;;;17.17;5.55;;;16.80;99.90;;;;;;5063131;28;20045;-63
2022/10/04 00:28:45;;;;;;;15.82;5.40;;;16.70;99.90;;;;;;5039613;28;20056;-63
2022/10/04 00:31:25;;;;;;;18.67;5.35;;;16.70;99.90;;;;;;5063755;28;20044;-62
2022/10/04 00:34:17;;;;;;;18.20;5.05;;;16.80;99.90;;;;;;5061630;28;20102;-63
2022/10/04 00:36:54;;;;;;;16.05;4.70;;;16.70;99.90;;;;;;5045268;28;20071;-63
2022/10/04 00:39:38;;;;;;;17.08;5.35;;;16.70;99.90;;;;;;5052997;28;20049;-63
2022/10/04 00:42:28;;;;;;;20.80;5.97;;;16.60;99.90;;;;;;5071267;28;20127;-62
2022/10/04 00:45:01;;;;;;;20.50;5.97;;;16.80;99.90;;;;;;5073840;28;20040;-62
2022/10/04 00:47:30;;;;;;;19.23;6.22;;;16.70;99.90;;;;;;5074177;28;20490;-63
2022/10/04 00:50:20;;;;;;;18.33;5.97;;;16.90;99.90;;;;;;5053763;28;20483;-63
2022/10/04 00:52:52;;;;;;;19.67;6.25;;;16.80;99.90;;;;;;5073109;28;20051;-62
2022/10/04 00:55:28;;;;;;;26.63;6.90;;;16.70;99.90;;;;;;5071951;28;20108;-63
2022/10/04 00:57:58;;;;;;;16.75;6.60;;;16.70;99.90;;;;;;5074008;28;20087;-62
2022/10/04 01:00:25;;;;;;;25.73;6.90;;;16.80;99.90;;;;;;5072433;28;20107;-62
2022/10/04 01:02:57;;;;;;;25.20;6.70;;;16.80;99.90;;;;;;5070290;28;20049;-63
2022/10/04 01:05:33;;;;;;;15.13;6.32;;;16.70;99.90;;;;;;5053713;28;20078;-62
2022/10/04 01:08:13;;;;;;;;;;;16.60;99.90;;;;;;5054058;28;20487;-62
2022/10/04 01:11:08;;;;;;;23.55;6.57;;;16.60;99.90;;;;;;5053299;28;19925;-62
2022/10/04 01:13:48;;;;;;;18.40;6.43;;;16.30;99.90;;;;;;5053206;28;20049;-62
2022/10/04 01:16:21;;;;;;;16.90;5.70;;;16.30;99.90;;;;;;5053410;28;20044;-62
2022/10/04 01:18:47;;;;;;;20.80;6.40;;;16.30;99.90;;;;;;5053571;28;20049;-62
2022/10/04 01:21:18;;;;;;;19.30;6.28;;;16.40;99.90;;;;;;5060490;28;20135;-63
2022/10/04 01:23:50;;;;;;;12.75;5.97;;;16.30;99.90;;;;;;5071610;28;20090;-62
2022/10/04 01:26:43;;;;;;;17.00;6.70;;;16.20;99.90;;;;;;5071891;28;20544;-62
2022/10/04 01:29:25;;;;;;;17.08;7.30;;;16.10;99.90;;;;;;5071180;28;20102;-63
2022/10/04 01:31:53;;;;;;;19.92;6.65;;;16.20;99.90;;;;;;5073177;28;20271;-62
2022/10/04 01:34:22;;;;;;;19.45;6.88;;;16.30;99.90;;;;;;5063335;28;20057;-62
2022/10/04 01:36:51;;;;;;;17.75;6.88;;;15.90;99.90;;;;;;5072977;28;20045;-63
2022/10/04 01:39:19;;;;;;;15.88;6.65;;;15.70;99.90;;;;;;5072899;28;20494;-63
2022/10/04 01:42:06;;;;;;;15.18;6.60;;;15.70;99.90;;;;;;5066552;28;20044;-63
2022/10/04 01:44:47;;;;;;;22.42;7.07;;;15.80;99.90;;;;;;5054139;28;20045;-63
2022/10/04 01:47:33;;;;;;;14.82;6.30;;;15.50;99.90;;;;;;5069003;28;20040;-62
2022/10/04 01:50:05;;;;;;;23.67;7.20;;;15.60;99.90;;;;;;5072885;28;20507;-63
2022/10/04 01:52:38;;;;;;;15.93;6.90;;;15.50;99.90;;;;;;5070674;28;20060;-63
2022/10/04 01:55:36;;;;;;;16.27;6.72;;;15.70;99.90;;;;;;5052614;28;20053;-63
2022/10/04 01:58:20;;;;;;;18.85;7.32;;;15.40;99.90;;;;;;5058425;28;20045;-63
2022/10/04 02:00:54;;;;;;;16.92;6.68;;;15.40;99.90;;;;;;5040598;28;20244;-62
2022/10/04 02:03:27;;;;;;;14.50;6.57;;;15.50;99.90;;;;;;5065576;28;20080;-63
2022/10/04 02:06:00;;;;;;;17.58;6.90;;;15.40;99.90;;;;;;5072506;28;20048;-62
2022/10/04 02:08:32;;;;;;;19.58;7.80;;;15.60;99.90;;;;;;5072438;28;20395;-63
2022/10/04 02:11:00;;;;;;;18.48;7.90;;;15.50;99.90;;;;;;5071776;28;20053;-62
2022/10/04 02:13:33;;;;;;;17.05;7.35;;;15.80;99.90;;;;;;5069145;28;20066;-62
2022/10/04 02:16:01;;;;;;;18.77;8.73;;;15.60;99.90;;;;;;5055849;28;20052;-62
2022/10/04 02:18:28;;;;;;;17.95;7.70;;;15.80;99.90;;;;;;5070915;28;20079;-63
2022/10/04 02:20:55;;;;;;;20.05;7.40;;;15.80;99.90;;;;;;5072136;28;20406;-62
2022/10/04 02:23:23;;;;;;;16.60;8.27;;;15.80;99.90;;;;;;5071990;28;20044;-63
2022/10/04 02:25:48;;;;;;;17.75;8.02;;;15.80;99.90;;;;;;5067898;28;20070;-63
2022/10/04 02:28:17;;;;;;;17.92;8.85;;;15.60;99.90;;;;;;5068729;28;20553;-62
2022/10/04 02:32:56;;;;;;;19.92;7.97;;;15.60;99.90;;;;;;5051877;28;20033;-62
2022/10/04 02:33:37;;;;;;;17.70;7.93;;;15.60;99.90;;;;;;5062561;28;20044;-63
2022/10/04 02:36:04;;;;;;;16.90;7.32;;;15.70;99.90;;;;;;5066393;28;20040;-62
2022/10/04 02:38:34;;;;;;;20.38;8.55;;;15.50;99.90;;;;;;5051924;28;20044;-62
2022/10/04 02:41:12;;;;;;;19.33;8.02;;;15.60;99.90;;;;;;5051663;28;20037;-62
2022/10/04 02:43:49;;;;;;;20.40;7.82;;;15.40;99.90;;;;;;5052947;28;20475;-62
2022/10/04 02:46:46;;;;;;;15.32;7.63;;;15.40;99.90;;;;;;5064005;28;20524;-62
2022/10/04 02:49:30;;;;;;;17.52;7.90;;;15.30;99.90;;;;;;5065005;28;20063;-63
2022/10/04 02:52:08;;;;;;;17.45;7.55;;;15.30;99.90;;;;;;5056436;28;20049;-63
2022/10/04 02:55:08;;;;;;;16.52;7.60;;;15.10;99.90;;;;;;5059935;28;20416;-63
2022/10/04 02:57:34;;;;;;;16.52;7.35;;;15.30;99.90;;;;;;5070519;28;20115;-62
2022/10/04 03:00:15;;;;;;;20.45;7.47;;;15.20;99.90;;;;;;5056053;28;20117;-62
2022/10/04 03:03:01;;;;;;;22.75;8.27;;;15.00;99.90;;;;;;5051539;28;20047;-62
2022/10/04 03:05:27;;;;;;;16.00;7.85;;;15.10;99.90;;;;;;5066285;28;20114;-63
2022/10/04 03:07:53;;;;;;;20.25;7.38;;;14.80;99.90;;;;;;5071353;28;20043;-63
2022/10/04 03:10:19;;;;;;;26.35;8.70;;;14.80;99.90;;;;;;5070848;28;20060;-63
2022/10/04 03:12:49;;;;;;;17.50;7.85;;;14.80;99.90;;;;;;5069447;28;20047;-62
2022/10/04 03:15:15;;;;;;;18.33;8.70;;;15.00;99.90;;;;;;5056834;28;20116;-62
2022/10/04 03:17:43;;;;;;;21.98;8.80;;;14.70;99.90;;;;;;5051092;28;20084;-62
2022/10/04 03:20:15;;;;;;;18.50;8.13;;;15.00;99.90;;;;;;5051563;28;20040;-62
2022/10/04 03:22:44;;;;;;;18.83;8.20;;;14.80;99.90;;;;;;5051150;28;20036;-62
2022/10/04 03:25:21;;;;;;;15.32;8.13;;;14.70;99.90;;;;;;5064436;28;20043;-62
2022/10/04 03:27:48;;;;;;;16.00;8.77;;;14.60;99.90;;;;;;5070015;28;20109;-62
2022/10/04 03:30:15;;;;;;;17.25;7.72;;;14.50;99.90;;;;;;5070973;28;20513;-62
2022/10/04 03:32:41;;;;;;;17.80;8.18;;;14.70;99.90;;;;;;5066328;28;20239;-62
2022/10/04 03:35:24;;;;;;;22.05;8.32;;;14.40;99.90;;;;;;5062324;28;20443;-63
2022/10/04 03:37:50;;;;;;;16.02;8.23;;;14.70;99.90;;;;;;5066391;28;20049;-62
2022/10/04 03:40:17;;;;;;;22.63;8.63;;;14.60;99.90;;;;;;5070936;28;20486;-62
2022/10/04 03:42:45;;;;;;;22.23;8.48;;;14.60;99.90;;;;;;5071040;28;20056;-62
2022/10/04 03:45:16;;;;;;;19.25;8.55;;;14.60;99.90;;;;;;5069961;28;20120;-62
2022/10/04 03:47:47;;;;;;;18.67;9.05;;;14.40;99.90;;;;;;5074994;28;20514;-62
2022/10/04 03:50:25;;;;;;;18.60;7.85;;;14.60;99.90;;;;;;5053705;28;20064;-62
2022/10/04 03:52:55;;;;;;;18.17;8.90;;;14.60;99.90;;;;;;5072114;28;20048;-63
2022/10/04 03:55:27;;;;;;;17.73;8.95;;;14.90;99.90;;;;;;5071132;28;20163;-62
2022/10/04 03:57:53;;;;;;;18.42;9.80;;;14.80;99.90;;;;;;5064829;28;20045;-61
2022/10/04 04:00:19;;;;;;;20.35;8.82;;;14.80;99.90;;;;;;5060345;28;20044;-63
2022/10/04 04:03:15;;;;;;;15.95;8.77;;;14.90;99.90;;;;;;5064102;28;20040;-62
2022/10/04 04:05:47;;;;;;;19.05;9.48;;;14.60;99.90;;;;;;5055863;28;20492;-62
2022/10/04 04:08:35;;;;;;;16.83;8.73;;;14.70;99.90;;;;;;5066174;28;20111;-62
2022/10/04 04:11:04;;;;;;;22.33;9.23;;;14.60;99.90;;;;;;5065185;28;20107;-62
2022/10/04 04:13:36;;;;;;;17.58;8.82;;;14.50;99.90;;;;;;5060258;28;20736;-62
2022/10/04 04:16:02;;;;;;;17.95;9.82;;;14.70;99.90;;;;;;5052629;28;20116;-62
2022/10/04 04:18:34;;;;;;;14.65;8.80;;;14.60;99.90;;;;;;5061664;28;20033;-62
2022/10/04 04:21:02;;;;;;;17.15;8.95;;;14.40;99.90;;;;;;5070124;28;20359;-62
2022/10/04 04:23:35;;;;;;;18.42;8.43;;;14.50;99.90;;;;;;5054431;28;20044;-62
2022/10/04 04:26:38;;;;;;;17.33;8.80;;;14.60;99.90;;;;;;5052869;28;20053;-62
2022/10/04 04:29:25;;;;;;;15.10;8.57;;;14.50;99.90;;;;;;5069158;28;20041;-62
2022/10/04 04:31:56;;;;;;;15.88;8.90;;;14.80;99.90;;;;;;5071465;28;20083;-62
2022/10/04 04:34:28;;;;;;;17.50;8.95;;;14.70;99.90;;;;;;5060127;28;20553;-62
2022/10/04 04:37:00;;;;;;;25.75;10.07;;;14.40;99.90;;;;;;5053996;28;20044;-62
2022/10/04 04:39:35;;;;;;;24.27;11.20;;;14.40;99.90;;;;;;5054994;28;21019;-62
2022/10/04 04:42:09;;;;;;;24.20;10.10;;;14.70;99.90;;;;;;5062324;28;20048;-62
2022/10/04 04:44:46;;;;;;;19.35;9.48;;;14.80;99.90;;;;;;5068152;28;20037;-63
2022/10/04 04:47:26;;;;;;;23.15;11.55;;;14.80;99.90;;;;;;5063831;28;20040;-61
2022/10/04 04:49:53;;;;;;;20.05;10.00;;;14.90;99.90;;;;;;5060392;28;20041;-62
2022/10/04 04:52:24;;;;;;;21.38;11.27;;;15.00;99.90;;;;;;5062508;28;20041;-62
2022/10/04 04:54:51;;;;;;;21.65;10.80;;;14.80;99.90;;;;;;5054659;28;20041;-61
2022/10/04 04:57:17;;;;;;;24.05;11.38;;;15.00;99.90;;;;;;5060150;28;20040;-62
2022/10/04 04:59:47;;;;;;;28.75;11.80;;;14.90;99.90;;;;;;5067454;28;20060;-61
2022/10/04 05:02:27;;;;;;;24.42;11.05;;;14.90;99.90;;;;;;5058091;28;20183;-61
2022/10/04 05:05:17;;;;;;;22.75;10.23;;;14.60;99.90;;;;;;5061331;28;20067;-61
2022/10/04 05:07:42;;;;;;;17.30;8.38;;;14.60;99.90;;;;;;5053516;28;20045;-62
2022/10/04 05:10:29;;;;;;;15.95;9.90;;;14.50;99.90;;;;;;5055640;28;20502;-63
2022/10/04 05:12:55;;;;;;;20.42;9.93;;;14.40;99.90;;;;;;5063486;28;20049;-63
2022/10/04 05:15:21;;;;;;;18.80;10.32;;;14.10;99.90;;;;;;5072268;28;20040;-62
2022/10/04 05:17:47;;;;;;;15.02;9.30;;;14.00;99.90;;;;;;5056913;28;20048;-63
2022/10/04 05:20:14;;;;;;;18.80;9.77;;;14.20;99.90;;;;;;5060992;28;20449;-62
2022/10/04 05:22:44;;;;;;;22.20;11.50;;;14.10;99.90;;;;;;5059553;28;20045;-62
2022/10/04 05:25:35;;;;;;;24.63;14.05;;;14.30;99.90;;;;;;5053083;28;20033;-63
2022/10/04 05:28:01;;;;;;;20.10;10.60;;;14.50;99.90;;;;;;5052860;28;20286;-62
2022/10/04 05:30:40;;;;;;;18.05;11.73;;;14.40;99.90;;;;;;5051920;28;20140;-62
2022/10/04 05:33:09;;;;;;;20.40;12.00;;;14.30;99.90;;;;;;5073008;28;20494;-62
2022/10/04 05:36:10;;;;;;;19.48;11.23;;;14.70;99.90;;;;;;5072935;28;20044;-62
2022/10/04 05:38:39;;;;;;;19.23;11.45;;;14.30;99.90;;;;;;5053235;28;20439;-63
2022/10/04 05:41:28;;;;;;;17.83;11.10;;;14.50;99.90;;;;;;5052757;28;20057;-63
2022/10/04 05:43:54;;;;;;;20.15;10.68;;;14.50;99.90;;;;;;5023811;28;20052;-62
2022/10/04 05:46:40;;;;;;;26.40;14.18;;;14.50;99.90;;;;;;5059207;28;20044;-62
2022/10/04 05:49:14;;;;;;;20.33;12.57;;;14.40;99.90;;;;;;5061111;28;20063;-62
2022/10/04 05:52:00;;;;;;;31.27;13.45;;;14.80;99.90;;;;;;5055000;28;20072;-63
2022/10/04 05:54:29;;;;;;;24.73;12.98;;;14.70;99.90;;;;;;5061646;28;20040;-63
2022/10/04 05:57:27;;;;;;;22.00;12.38;;;14.50;99.90;;;;;;5051233;28;20052;-62
2022/10/04 06:00:14;;;;;;;26.27;15.90;;;14.40;99.90;;;;;;5052854;28;20510;-62
2022/10/04 06:02:49;;;;;;;29.30;15.43;;;14.60;99.90;;;;;;5053711;28;20045;-63
2022/10/04 06:05:34;;;;;;;26.23;13.70;;;14.40;99.90;;;;;;5052788;28;20090;-62
2022/10/04 06:08:28;;;;;;;22.88;14.05;;;14.40;99.90;;;;;;5065807;28;20045;-62
2022/10/04 06:11:08;;;;;;;25.30;14.52;;;14.60;99.90;;;;;;5071781;28;20060;-63
2022/10/04 06:13:52;;;;;;;22.75;13.13;;;14.80;99.90;;;;;;5060774;28;20041;-63
2022/10/04 06:16:50;;;;;;;25.33;14.45;;;14.40;99.90;;;;;;5052527;28;20033;-63
2022/10/04 06:19:42;;;;;;;27.73;15.18;;;14.30;99.90;;;;;;5072293;28;20044;-63
2022/10/04 06:22:25;;;;;;;26.58;14.18;;;14.70;99.90;;;;;;5070258;28;20090;-62
2022/10/04 06:25:01;;;;;;;27.52;14.50;;;14.70;99.90;;;;;;5069706;28;20075;-62
2022/10/04 06:27:35;;;;;;;34.42;14.88;;;14.70;99.90;;;;;;5052556;28;20474;-63
2022/10/04 06:30:11;;;;;;;30.83;15.45;;;14.90;99.90;;;;;;5051782;28;20037;-62
2022/10/04 06:32:56;;;;;;;23.20;13.95;;;14.80;99.90;;;;;;5055112;28;20032;-63
2022/10/04 06:35:50;;;;;;;27.45;14.90;;;15.00;99.90;;;;;;5057726;28;20542;-63
2022/10/04 06:38:31;;;;;;;28.75;14.48;;;15.10;99.90;;;;;;5054650;28;20506;-63
2022/10/04 06:41:03;;;;;;;22.80;13.63;;;15.20;99.90;;;;;;5071855;28;20487;-63
2022/10/04 06:43:41;;;;;;;23.30;13.65;;;14.90;99.90;;;;;;5071919;28;20406;-63
2022/10/04 06:46:41;;;;;;;24.95;14.00;;;15.20;99.90;;;;;;5064348;28;20044;-63
2022/10/04 06:49:25;;;;;;;24.42;14.07;;;15.50;99.90;;;;;;5052903;28;20397;-63
2022/10/04 06:52:21;;;;;;;22.55;14.45;;;15.30;99.90;;;;;;5054040;28;20049;-63
2022/10/04 06:55:16;;;;;;;22.67;12.75;;;15.50;99.90;;;;;;5069607;28;20040;-64
2022/10/04 06:58:11;;;;;;;24.02;12.93;;;15.50;99.90;;;;;;5071581;28;20032;-62
2022/10/04 07:00:58;;;;;;;20.50;12.88;;;16.00;99.90;;;;;;5071304;28;20114;-64
2022/10/04 07:03:36;;;;;;;27.85;13.48;;;16.10;99.90;;;;;;5069931;28;20561;-64
2022/10/04 07:06:09;;;;;;;20.48;12.50;;;16.10;99.90;;;;;;5071355;28;20037;-64
2022/10/04 07:08:48;;;;;;;21.58;12.98;;;16.00;99.90;;;;;;5043737;28;20045;-64
2022/10/04 07:11:26;;;;;;;22.73;14.65;;;15.80;99.90;;;;;;5055316;28;20516;-64
2022/10/04 07:14:29;;;;;;;25.17;15.27;;;16.20;99.90;;;;;;5069958;28;20082;-64
2022/10/04 07:17:02;;;;;;;24.67;13.63;;;16.30;99.90;;;;;;5058313;28;20604;-64
2022/10/04 07:19:35;;;;;;;25.90;14.13;;;16.30;99.90;;;;;;5063720;28;20033;-64
2022/10/04 07:22:07;;;;;;;22.77;14.23;;;16.50;99.90;;;;;;5070224;28;20040;-64
2022/10/04 07:24:57;;;;;;;23.13;12.43;;;16.90;99.90;;;;;;5067692;28;20057;-64
2022/10/04 07:29:19;;;;;;;24.10;14.73;;;16.50;99.90;;;;;;5062293;28;20115;-64
2022/10/04 07:30:38;;;;;;;26.65;13.35;;;16.70;99.90;;;;;;5064461;28;20049;-64
2022/10/04 07:33:07;;;;;;;21.05;12.75;;;16.90;99.90;;;;;;5052628;28;20395;-63
2022/10/04 07:35:45;;;;;;;24.63;13.77;;;17.10;99.90;;;;;;5055027;28;20479;-63
2022/10/04 07:38:16;;;;;;;26.35;12.90;;;16.90;99.90;;;;;;5054818;28;20049;-63
2022/10/04 07:41:07;;;;;;;19.90;11.68;;;17.20;99.90;;;;;;5052050;28;20047;-63
2022/10/04 07:43:44;;;;;;;37.30;13.18;;;17.30;99.90;;;;;;5054927;28;20045;-64
2022/10/04 07:46:31;;;;;;;18.58;9.73;;;17.20;99.90;;;;;;5050898;28;20041;-63
2022/10/04 07:48:57;;;;;;;19.10;9.93;;;17.00;99.90;;;;;;5064762;28;20037;-63
2022/10/04 07:51:31;;;;;;;22.92;9.77;;;17.20;99.90;;;;;;5070900;28;20056;-63
2022/10/04 07:54:15;;;;;;;29.42;13.40;;;17.00;99.90;;;;;;5056233;28;20097;-63
2022/10/04 07:57:05;;;;;;;23.98;13.07;;;17.00;99.90;;;;;;5054326;28;20098;-63
2022/10/04 07:59:47;;;;;;;17.42;9.70;;;17.30;99.90;;;;;;5065217;28;20072;-65
2022/10/04 08:02:25;;;;;;;23.23;11.55;;;17.60;99.90;;;;;;5058641;28;20045;-65
2022/10/04 08:05:11;;;;;;;29.83;13.30;;;17.80;99.90;;;;;;5049737;28;20045;-65
2022/10/04 08:07:46;;;;;;;;;;;18.00;99.90;;;;;;5050245;28;20055;-65
2022/10/04 08:10:24;;;;;;;24.77;12.98;;;18.00;99.90;;;;;;5050477;28;19926;-65
2022/10/04 08:13:24;;;;;;;18.55;11.98;;;18.10;99.90;;;;;;5044645;28;20081;-65
2022/10/04 08:15:51;;;;;;;22.92;12.70;;;18.40;99.90;;;;;;5049402;28;20033;-65
2022/10/04 08:18:55;;;;;;;21.08;10.80;;;18.50;99.90;;;;;;5049448;28;20762;-64
2022/10/04 08:21:30;;;;;;;23.70;10.75;;;18.40;99.90;;;;;;5029145;28;20138;-65
2022/10/04 08:24:31;;;;;;;19.60;9.67;;;18.20;99.90;;;;;;5050888;28;20573;-65
2022/10/04 08:27:06;;;;;;;15.30;9.43;;;18.10;99.90;;;;;;5050641;28;20287;-64
2022/10/04 08:30:03;;;;;;;21.10;11.32;;;18.10;99.90;;;;;;5050991;28;20040;-65
2022/10/04 08:32:34;;;;;;;15.10;8.88;;;18.10;99.90;;;;;;5049332;28;20102;-65
2022/10/04 08:35:32;;;;;;;17.63;10.43;;;18.00;99.90;;;;;;5071502;28;20044;-65
2022/10/04 08:38:29;;;;;;;18.35;10.27;;;18.20;99.90;;;;;;5072923;28;20516;-65
2022/10/04 08:41:29;;;;;;;18.58;10.38;;;18.10;99.90;;;;;;5071890;28;20044;-65
2022/10/04 08:44:22;;;;;;;14.95;9.15;;;18.20;99.90;;;;;;5059041;28;20465;-65
2022/10/04 08:47:20;;;;;;;15.57;10.85;;;18.50;99.90;;;;;;5069530;28;20044;-65
2022/10/04 08:50:01;;;;;;;19.27;10.68;;;18.90;99.90;;;;;;5039029;28;20048;-65
2022/10/04 08:52:45;;;;;;;22.42;11.05;;;18.90;99.90;;;;;;5070620;28;20116;-66
2022/10/04 08:55:31;;;;;;;19.70;11.55;;;19.20;99.90;;;;;;5062649;28;20048;-65
2022/10/04 08:58:00;;;;;;;21.77;11.68;;;19.30;99.90;;;;;;5069728;28;20498;-65
2022/10/04 09:01:05;;;;;;;19.85;12.05;;;19.70;99.90;;;;;;5069289;28;20494;-64
2022/10/04 09:04:01;;;;;;;17.98;10.73;;;19.30;99.90;;;;;;5023892;28;20062;-65
2022/10/04 09:06:55;;;;;;;19.08;10.27;;;19.10;99.90;;;;;;5072695;28;20039;-65
2022/10/04 09:09:47;;;;;;;16.33;9.93;;;19.40;99.90;;;;;;5059625;28;20049;-66
2022/10/04 09:12:48;;;;;;;20.27;11.00;;;19.70;99.90;;;;;;5064916;28;20044;-65
2022/10/04 09:15:39;;;;;;;19.70;11.25;;;19.60;99.90;;;;;;5061582;28;20033;-64
2022/10/04 09:18:20;;;;;;;17.75;9.40;;;19.20;99.90;;;;;;5053557;28;20597;-65
2022/10/04 09:21:02;;;;;;;18.60;10.85;;;19.10;99.90;;;;;;5052222;28;20040;-65
2022/10/04 09:23:32;;;;;;;20.65;11.73;;;19.10;99.90;;;;;;5063634;28;20036;-66
2022/10/04 09:26:22;;;;;;;22.70;14.50;;;19.30;99.90;;;;;;5070707;28;20515;-66
2022/10/04 09:29:14;;;;;;;18.13;10.98;;;19.40;99.90;;;;;;5052257;28;20375;-65
2022/10/04 09:31:48;;;;;;;20.30;11.05;;;19.40;99.90;;;;;;5055965;28;20090;-65
2022/10/04 09:34:26;;;;;;;18.25;10.90;;;19.10;99.90;;;;;;5071385;28;20056;-64
2022/10/04 09:37:05;;;;;;;23.35;13.48;;;19.20;99.90;;;;;;5062268;28;20040;-65
2022/10/04 09:40:02;;;;;;;28.05;14.98;;;19.40;99.90;;;;;;5051991;28;20040;-65
2022/10/04 09:42:59;;;;;;;22.23;13.90;;;19.50;99.90;;;;;;5029144;28;20052;-65
2022/10/04 09:45:45;;;;;;;20.05;11.70;;;19.60;99.90;;;;;;5059930;28;20386;-65
2022/10/04 09:48:40;;;;;;;21.35;11.70;;;19.60;99.90;;;;;;5041588;28;20082;-65
2022/10/04 09:51:19;;;;;;;24.10;13.85;;;19.60;99.90;;;;;;5053328;28;20040;-65
2022/10/04 09:54:05;;;;;;;29.45;14.75;;;19.60;99.90;;;;;;5053414;28;20044;-65
2022/10/04 09:56:43;;;;;;;20.48;10.35;;;19.80;99.90;;;;;;5054023;28;20048;-65
2022/10/04 09:59:41;;;;;;;20.80;11.55;;;19.80;99.90;;;;;;5052627;28;20174;-65
2022/10/04 10:02:29;;;;;;;18.25;12.13;;;19.80;99.90;;;;;;5052446;28;20041;-65
2022/10/04 10:05:27;;;;;;;18.45;12.73;;;19.90;99.90;;;;;;5053474;28;20514;-65
2022/10/04 10:08:19;;;;;;;24.23;14.43;;;19.80;99.90;;;;;;5057165;28;20041;-65
2022/10/04 10:14:38;;;;;;;23.60;14.80;;;19.90;99.90;;;;;;5051014;28;20057;-65
2022/10/04 10:17:36;;;;;;;17.75;12.30;;;20.00;99.90;;;;;;5021004;28;20083;-65
2022/10/04 10:20:42;;;;;;;27.27;13.73;;;19.80;99.90;;;;;;5050790;28;20045;-65
2022/10/04 10:23:30;;;;;;;20.15;12.93;;;19.90;99.90;;;;;;5052585;28;20037;-65
2022/10/04 10:26:23;;;;;;;18.50;11.88;;;19.90;99.90;;;;;;5058244;28;20037;-65
2022/10/04 10:29:17;;;;;;;18.95;11.77;;;19.60;99.90;;;;;;5055629;28;20502;-65
2022/10/04 10:31:55;;;;;;;20.42;13.13;;;19.40;99.90;;;;;;5052318;28;20047;-65
2022/10/04 10:34:41;;;;;;;22.38;14.13;;;19.60;99.90;;;;;;5063785;28;20459;-65
2022/10/04 10:37:35;;;;;;;18.77;12.23;;;19.50;99.90;;;;;;5065953;28;20116;-66
2022/10/04 10:40:44;;;;;;;20.98;13.35;;;19.50;99.90;;;;;;5057638;28;20413;-65
2022/10/04 10:43:33;;;;;;;19.25;13.57;;;19.50;99.90;;;;;;5006736;28;20145;-65
2022/10/04 10:46:05;;;;;;;18.95;13.32;;;19.50;99.90;;;;;;5029170;28;20038;-65
2022/10/04 10:49:08;;;;;;;22.23;15.55;;;19.60;99.90;;;;;;5042002;28;20049;-65
2022/10/04 10:52:24;;;;;;;21.48;13.95;;;19.70;99.90;;;;;;5050720;28;20045;-65
2022/10/04 10:55:15;;;;;;;22.83;12.65;;;19.70;99.90;;;;;;5061880;28;20057;-65
2022/10/04 10:58:08;;;;;;;21.27;13.95;;;19.70;99.90;;;;;;5069697;28;20537;-65
2022/10/04 11:01:11;;;;;;;18.92;13.15;;;19.90;99.90;;;;;;5071175;28;20041;-65
2022/10/04 11:04:00;;;;;;;22.70;15.85;;;19.60;99.90;;;;;;5058059;28;20079;-65
2022/10/04 11:06:55;;;;;;;24.88;17.02;;;19.40;99.90;;;;;;5051539;28;20075;-65
2022/10/04 11:09:27;;;;;;;23.42;15.20;;;19.30;99.90;;;;;;5054210;28;20498;-65
2022/10/04 11:12:07;;;;;;;19.08;12.85;;;19.20;99.90;;;;;;5052216;28;20048;-65
2022/10/04 11:14:37;;;;;;;21.77;14.05;;;19.40;99.90;;;;;;5066640;28;20044;-65
2022/10/04 11:17:09;;;;;;;22.63;14.68;;;19.20;99.90;;;;;;5063292;28;20049;-65
2022/10/04 11:20:07;;;;;;;20.90;14.20;;;19.30;99.90;;;;;;5061839;28;20110;-69
2022/10/04 11:22:43;;;;;;;21.05;14.55;;;19.30;99.90;;;;;;5067256;28;20524;-64
2022/10/04 11:25:33;;;;;;;19.10;14.20;;;19.40;99.90;;;;;;5069946;28;20060;-65
2022/10/04 11:28:15;;;;;;;23.23;15.93;;;19.30;99.90;;;;;;5059501;28;20041;-65
2022/10/04 11:30:44;;;;;;;24.45;16.42;;;19.50;99.90;;;;;;5067646;28;20486;-65
2022/10/04 11:33:31;;;;;;;26.50;17.25;;;19.70;99.90;;;;;;5053341;28;20073;-64
2022/10/04 11:36:15;;;;;;;21.92;14.98;;;19.80;99.90;;;;;;5068408;28;20041;-64
2022/10/04 11:38:55;;;;;;;20.23;13.95;;;19.80;99.90;;;;;;5070987;28;20086;-65
2022/10/04 11:41:28;;;;;;;18.67;13.27;;;19.80;99.90;;;;;;5070501;28;20036;-64
2022/10/04 11:44:20;;;;;;;20.20;13.35;;;20.20;99.90;;;;;;5055133;28;20076;-64
2022/10/04 11:46:59;;;;;;;19.35;13.05;;;19.80;99.90;;;;;;5070207;28;20040;-64
2022/10/04 11:49:55;;;;;;;25.70;13.10;;;19.90;99.90;;;;;;5064817;28;20123;-64
2022/10/04 11:52:39;;;;;;;18.23;11.95;;;20.00;99.90;;;;;;5057380;28;20044;-64
2022/10/04 11:55:25;;;;;;;17.30;11.60;;;20.10;99.90;;;;;;5061729;28;20079;-64
2022/10/04 11:57:54;;;;;;;16.45;10.07;;;20.20;99.90;;;;;;5069387;28;20044;-64
2022/10/04 12:00:23;;;;;;;21.20;10.57;;;20.40;99.90;;;;;;5070360;28;20486;-64
2022/10/04 12:03:49;;;;;;;14.68;10.02;;;20.20;99.90;;;;;;5057164;28;20128;-64
2022/10/04 12:06:40;;;;;;;24.48;12.57;;;20.20;99.90;;;;;;5060913;28;20063;-64
2022/10/04 12:09:18;;;;;;;15.98;10.52;;;20.20;99.90;;;;;;5067133;28;20076;-64
2022/10/04 12:15:07;;;;;;;21.88;12.65;;;20.20;99.90;;;;;;5069597;28;20079;-64
2022/10/04 12:17:51;;;;;;;19.83;12.02;;;20.30;99.90;;;;;;5070253;28;20090;-64
2022/10/04 12:20:27;;;;;;;21.77;10.35;;;20.30;99.90;;;;;;5072895;28;20040;-65
2022/10/04 12:23:23;;;;;;;19.73;13.65;;;20.30;99.90;;;;;;5065052;28;20048;-64
2022/10/04 12:26:07;;;;;;;14.52;10.20;;;20.20;99.90;;;;;;5052490;28;20049;-64
2022/10/04 12:29:03;;;;;;;21.67;11.07;;;20.20;99.90;;;;;;5058313;28;20041;-64
2022/10/04 12:31:40;;;;;;;17.60;11.75;;;20.30;99.90;;;;;;5054922;28;20029;-65
2022/10/04 12:34:13;;;;;;;17.73;10.40;;;20.30;99.90;;;;;;5059145;28;20040;-64
2022/10/04 12:37:12;;;;;;;16.40;10.13;;;20.40;99.90;;;;;;5054230;28;20126;-65
2022/10/04 12:39:37;;;;;;;13.25;10.35;;;20.40;99.90;;;;;;5063095;28;20045;-64
2022/10/04 12:42:16;;;;;;;17.45;10.50;;;20.40;99.90;;;;;;5060925;28;20037;-65
2022/10/04 12:45:05;;;;;;;15.73;9.75;;;20.40;99.90;;;;;;5054182;28;20041;-65
2022/10/04 12:47:47;;;;;;;15.85;9.43;;;20.40;99.90;;;;;;5054220;28;20112;-65
2022/10/04 12:50:18;;;;;;;17.92;11.55;;;20.40;99.90;;;;;;5054097;28;20049;-65
2022/10/04 12:53:02;;;;;;;14.27;11.40;;;20.30;99.90;;;;;;5054117;28;20040;-65
2022/10/04 12:55:48;;;;;;;15.52;9.43;;;20.40;99.90;;;;;;5052874;28;20052;-64
2022/10/04 12:58:33;;;;;;;19.08;12.05;;;20.50;99.90;;;;;;5063285;28;20114;-65
2022/10/04 13:01:11;;;;;;;15.25;9.77;;;20.50;99.90;;;;;;5068385;28;20458;-64
2022/10/04 13:04:18;;;;;;;15.20;8.90;;;20.50;99.90;;;;;;5054285;28;20494;-65
2022/10/04 13:06:58;;;;;;;13.73;9.65;;;20.50;99.90;;;;;;5054074;28;20036;-65
2022/10/04 13:09:26;;;;;;;18.38;7.80;;;20.50;99.90;;;;;;5051881;28;20119;-65
2022/10/04 13:12:04;;;;;;;13.45;8.20;;;20.60;99.90;;;;;;5066989;28;20052;-65
2022/10/04 13:14:46;;;;;;;16.00;8.07;;;20.50;99.90;;;;;;5066111;28;20044;-65
2022/10/04 13:17:51;;;;;;;13.88;8.68;;;20.60;99.90;;;;;;5054388;28;20490;-65
2022/10/04 13:20:39;;;;;;;15.05;8.68;;;20.50;99.90;;;;;;5072894;28;20458;-65
2022/10/04 13:23:27;;;;;;;16.40;8.02;;;20.50;99.90;;;;;;5064581;28;20491;-65
2022/10/04 13:26:29;;;;;;;13.57;8.05;;;20.40;99.90;;;;;;5069288;28;20571;-65
2022/10/04 13:29:03;;;;;;;11.45;7.70;;;20.50;99.90;;;;;;5070897;28;20448;-65
2022/10/04 13:31:40;;;;;;;15.63;7.05;;;20.40;99.90;;;;;;5072137;28;20050;-65
2022/10/04 13:34:26;;;;;;;10.68;6.40;;;20.40;99.90;;;;;;5058857;28;20398;-65
2022/10/04 13:37:19;;;;;;;12.63;6.57;;;20.70;99.90;;;;;;5062939;28;20098;-65
2022/10/04 13:40:22;;;;;;;12.27;6.57;;;20.40;99.90;;;;;;5072079;28;20127;-65
2022/10/04 13:43:11;;;;;;;9.70;6.28;;;20.40;99.90;;;;;;5071617;28;20036;-65
2022/10/04 13:45:59;;;;;;;17.50;8.63;;;20.50;99.90;;;;;;5070521;28;20041;-65
2022/10/04 13:48:36;;;;;;;13.68;8.30;;;20.30;99.90;;;;;;5068927;28;20048;-65